Time;durP1;ratioP1;P1;durP2;ratioP2;P2;SDS_P1;SDS_P2;PMS_P1;PMS_P2;Temp;Humidity;BMP_temperature;BMP_pressure;BME280_temperature;BME280_humidity;BME280_pressure;Samples;Min_cycle;Max_cycle;Signal;HPM_P1;HPM_P2
2020/12/06 00:00:23;;;;;;;39.87;20.50;;;;;;;7.92;74.67;99989.19;4892878;58;1138737;-82
2020/12/06 00:05:31;;;;;;;34.97;15.97;;;;;;;7.89;74.69;99984.15;4898637;57;1138765;-81
2020/12/06 00:10:36;;;;;;;35.90;16.77;;;;;;;7.87;74.69;99988.69;4895938;58;1138704;-82
2020/12/06 00:15:42;;;;;;;30.40;17.07;;;;;;;7.86;74.65;99979.95;4896594;58;1138617;-83
2020/12/06 00:20:47;;;;;;;38.87;17.53;;;;;;;7.85;74.74;99969.52;4893629;58;1138518;-82
2020/12/06 00:25:53;;;;;;;35.23;17.43;;;;;;;7.86;74.68;99969.41;4811744;59;1146050;-83
2020/12/06 00:30:59;;;;;;;23.12;11.63;;;;;;;7.86;74.74;99965.47;4753806;59;1138719;-82
2020/12/06 00:36:04;;;;;;;27.00;15.45;;;;;;;7.88;74.60;99971.94;4813388;59;1138729;-82
2020/12/06 00:41:16;;;;;;;30.23;15.90;;;;;;;7.89;74.51;99983.67;4810900;59;1138598;-81
2020/12/06 00:46:23;;;;;;;21.57;12.67;;;;;;;7.89;74.41;99974.93;4814620;59;1138749;-82
2020/12/06 00:51:29;;;;;;;28.53;15.37;;;;;;;7.92;74.29;99972.91;4810044;58;1138628;-82
2020/12/06 00:56:35;;;;;;;30.23;16.03;;;;;;;7.88;74.22;99953.03;4805503;58;1138749;-81
2020/12/06 01:01:41;;;;;;;35.07;16.57;;;;;;;7.92;74.12;99964.17;4774952;59;1138949;-82
2020/12/06 01:06:47;;;;;;;33.43;16.13;;;;;;;7.90;74.18;99960.81;4692642;60;1138567;-82
2020/12/06 01:11:54;;;;;;;24.45;13.90;;;;;;;7.92;74.12;99958.44;4693953;60;1138609;-83
2020/12/06 01:16:59;;;;;;;26.57;14.93;;;;;;;7.87;74.10;99961.88;4748386;59;1138871;-82
2020/12/06 01:22:06;;;;;;;30.95;14.73;;;;;;;7.82;74.22;99960.53;4741802;60;1138682;-82
2020/12/06 01:27:12;;;;;;;34.10;16.17;;;;;;;7.83;74.17;99959.11;4749549;59;1138731;-82
2020/12/06 01:32:17;;;;;;;33.57;17.03;;;;;;;7.83;74.26;99960.42;4746577;60;1138763;-82
2020/12/06 01:37:23;;;;;;;23.43;12.93;;;;;;;7.84;74.25;99968.69;4749424;59;1138767;-83
2020/12/06 01:42:28;;;;;;;30.00;15.97;;;;;;;7.82;73.81;99956.11;4744017;60;1138701;-82
2020/12/06 01:47:34;;;;;;;22.70;12.07;;;;;;;7.82;73.81;99956.11;4743378;59;1138696;-83
2020/12/06 01:52:41;;;;;;;30.47;15.03;;;;;;;7.88;74.15;99954.34;4747375;59;1138613;-83
2020/12/06 01:57:46;;;;;;;22.80;12.93;;;;;;;7.87;74.25;99968.46;4691849;60;1139185;-83
2020/12/06 02:02:52;;;;;;;25.20;13.90;;;;;;;7.86;74.24;99965.94;4749557;59;1138860;-83
2020/12/06 02:08:02;;;;;;;23.93;13.37;;;;;;;7.83;74.26;99960.42;4751040;59;1143750;-83
2020/12/06 02:13:07;;;;;;;28.95;15.35;;;;;;;7.80;74.45;99969.86;4745841;60;1138612;-83
2020/12/06 02:18:13;;;;;;;25.43;13.50;;;;;;;7.80;74.53;99965.91;4745320;60;1138727;-82
2020/12/06 02:23:18;;;;;;;27.27;13.97;;;;;;;7.77;74.63;99964.85;4746220;59;1138796;-82
2020/12/06 02:28:23;;;;;;;27.13;14.43;;;;;;;7.77;74.67;99960.91;4741331;59;1138823;-83
2020/12/06 02:33:29;;;;;;;28.03;15.13;;;;;;;7.79;74.67;99962.95;4690438;61;1138938;-82
2020/12/06 02:38:35;;;;;;;26.93;13.50;;;;;;;7.75;74.75;99966.28;4747744;60;1138506;-82
2020/12/06 02:43:40;;;;;;;28.93;16.40;;;;;;;7.74;74.81;99958.02;4746302;59;1138737;-82
2020/12/06 02:48:46;;;;;;;28.63;15.77;;;;;;;7.72;75.03;99962.55;4747176;60;1138742;-83
2020/12/06 02:53:51;;;;;;;28.70;15.80;;;;;;;7.77;74.98;99960.91;4750830;60;1138871;-83
2020/12/06 02:58:57;;;;;;;25.60;15.07;;;;;;;7.75;74.99;99970.70;4877676;58;1138747;-82
2020/12/06 03:04:02;;;;;;;29.25;15.30;;;;;;;7.73;75.13;99972.13;4734183;60;1138839;-82
2020/12/06 03:09:08;;;;;;;29.25;15.08;;;;;;;7.76;75.15;99970.59;4819770;58;1138843;-83
2020/12/06 03:14:14;;;;;;;28.80;12.60;;;;;;;7.74;75.19;99959.33;4821852;59;1138810;-83
2020/12/06 03:19:19;;;;;;;30.00;14.93;;;;;;;7.77;75.01;99963.53;4707616;60;1138825;-83
2020/12/06 03:24:25;;;;;;;28.90;15.63;;;;;;;7.78;74.99;99965.22;4691296;61;1138501;-84
2020/12/06 03:29:30;;;;;;;30.63;15.50;;;;;;;7.79;74.96;99968.69;4710993;60;1138517;-83
2020/12/06 03:34:36;;;;;;;26.30;13.93;;;;;;;7.78;74.86;99961.74;4708639;60;1138770;-82
2020/12/06 03:39:41;;;;;;;25.77;14.33;;;;;;;7.73;74.96;99971.29;4711133;60;1138413;-82
2020/12/06 03:44:47;;;;;;;25.47;14.77;;;;;;;7.71;75.00;99959.55;4811479;58;1138725;-82
2020/12/06 03:49:52;;;;;;;34.33;16.23;;;;;;;7.67;75.03;99959.41;4703995;59;1138870;-83
2020/12/06 03:54:58;;;;;;;29.47;14.30;;;;;;;7.59;75.25;99964.42;4706631;60;1138761;-83
2020/12/06 04:00:04;;;;;;;30.77;16.53;;;;;;;7.55;75.30;99971.33;4818210;58;1146248;-82
2020/12/06 04:05:10;;;;;;;27.07;14.87;;;;;;;7.48;75.41;99965.70;4837589;58;1138791;-82
2020/12/06 04:10:16;;;;;;;30.40;16.10;;;;;;;7.41;75.95;99971.88;4901455;58;1138841;-82
2020/12/06 04:15:22;;;;;;;26.50;14.97;;;;;;;7.37;75.90;99963.83;4904933;57;1138806;-82
2020/12/06 04:20:28;;;;;;;35.43;17.57;;;;;;;7.31;76.24;99956.88;4811470;58;1138899;-83
2020/12/06 04:25:33;;;;;;;31.27;16.45;;;;;;;7.31;76.17;99969.56;4809626;58;1138926;-83
2020/12/06 04:30:39;;;;;;;33.10;18.00;;;;;;;7.28;76.19;99963.67;4808961;59;1138945;-83
2020/12/06 04:35:45;;;;;;;33.90;17.70;;;;;;;7.18;76.51;99967.43;4806841;58;1139047;-82
2020/12/06 04:40:51;;;;;;;31.97;17.37;;;;;;;7.13;76.52;99970.89;4810904;59;1138787;-82
2020/12/06 04:45:57;;;;;;;36.53;17.83;;;;;;;7.04;77.03;99963.64;4736391;60;1138823;-83
2020/12/06 04:51:06;;;;;;;34.08;17.37;;;;;;;6.93;77.31;99978.87;4810367;59;1138727;-82
2020/12/06 04:56:13;;;;;;;25.25;14.85;;;;;;;6.89;77.49;99959.48;4729272;60;1138762;-83
2020/12/06 05:01:21;;;;;;;30.67;17.03;;;;;;;6.83;77.68;99961.25;4807843;59;1138741;-83
2020/12/06 05:06:28;;;;;;;29.53;16.17;;;;;;;6.79;77.90;99963.72;4802116;59;1138630;-83
2020/12/06 05:11:36;;;;;;;38.50;19.10;;;;;;;6.78;77.94;99970.77;4692516;61;1139549;-83
2020/12/06 05:16:42;;;;;;;36.80;19.33;;;;;;;6.73;78.15;99968.92;4743953;59;1138964;-83
2020/12/06 05:21:48;;;;;;;29.17;17.50;;;;;;;6.74;78.08;99974.55;4746214;59;1138828;-82
2020/12/06 05:26:54;;;;;;;40.07;19.23;;;;;;;6.76;78.21;99967.88;4715945;59;1138783;-83
2020/12/06 05:32:01;;;;;;;33.77;17.43;;;;;;;6.77;78.18;99969.08;4749623;60;1139012;-83
2020/12/06 05:37:08;;;;;;;27.32;16.17;;;;;;;6.83;78.14;99958.15;4728747;60;1138835;-83
2020/12/06 05:42:13;;;;;;;31.55;17.50;;;;;;;6.88;78.07;99953.38;4759039;59;1138846;-82
2020/12/06 05:47:19;;;;;;;31.10;17.43;;;;;;;6.92;77.98;99950.06;4693921;60;1138912;-83
2020/12/06 05:52:30;;;;;;;29.47;14.93;;;;;;;6.97;77.93;99942.23;4758925;60;1139086;-83
2020/12/06 05:57:35;;;;;;;31.27;16.23;;;;;;;7.05;77.82;99947.76;4760082;59;1139022;-82
2020/12/06 06:02:45;;;;;;;21.50;11.80;;;;;;;7.15;77.48;99960.27;4728027;60;1138939;-82
2020/12/06 06:07:54;;;;;;;24.70;14.53;;;;;;;7.20;77.32;99972.11;4824871;59;1138852;-82
2020/12/06 06:13:03;;;;;;;23.40;14.93;;;;;;;7.26;77.06;99972.99;4793692;59;1138811;-83
2020/12/06 06:18:10;;;;;;;25.75;13.30;;;;;;;7.26;76.96;99968.20;4812871;59;1138834;-83
2020/12/06 06:23:16;;;;;;;29.27;15.08;;;;;;;7.30;76.79;99957.83;4814698;59;1138830;-82
2020/12/06 06:28:22;;;;;;;23.70;14.60;;;;;;;7.31;76.79;99959.04;4814099;59;1138534;-82
2020/12/06 06:33:29;;;;;;;26.47;14.47;;;;;;;7.35;76.65;99958.31;4788314;59;1138816;-82
2020/12/06 06:38:46;;;;;;;19.53;12.87;;;;;;;7.38;76.39;99961.56;4815524;59;1138552;-82
2020/12/06 06:43:51;;;;;;;23.00;13.90;;;;;;;7.40;76.29;99966.72;4803292;60;1138735;-82
2020/12/06 06:48:58;;;;;;;26.93;14.57;;;;;;;7.36;76.16;99974.47;4814847;59;1138870;-82
2020/12/06 06:54:10;;;;;;;26.68;15.38;;;;;;;7.27;76.35;99981.72;4815492;59;1138810;-83
2020/12/06 06:59:16;;;;;;;31.73;14.57;;;;;;;7.21;76.49;99989.57;4812723;59;1138938;-82
2020/12/06 07:04:21;;;;;;;23.20;15.10;;;;;;;7.15;76.72;99985.24;4833039;59;1138455;-82
2020/12/06 07:09:29;;;;;;;28.77;15.60;;;;;;;7.10;76.80;99990.83;4812196;59;1138553;-83
2020/12/06 07:14:35;;;;;;;33.70;16.80;;;;;;;7.10;76.69;100009.23;4772707;60;1138730;-84
2020/12/06 07:19:41;;;;;;;23.07;13.40;;;;;;;7.02;77.17;99999.75;4866559;58;1140631;-83
2020/12/06 07:24:46;;;;;;;25.67;15.43;;;;;;;6.99;77.42;100002.59;4864370;58;1138704;-84
2020/12/06 07:29:52;;;;;;;25.50;16.77;;;;;;;6.97;77.49;99993.97;4862708;58;1140850;-85
2020/12/06 07:34:58;;;;;;;36.60;18.53;;;;;;;6.94;77.69;99988.92;4862458;58;1138657;-85
2020/12/06 07:40:10;;;;;;;30.93;17.83;;;;;;;6.98;77.78;99994.34;4863681;58;1138715;-84
2020/12/06 07:45:15;;;;;;;33.80;17.10;;;;;;;7.03;77.73;99996.98;4765377;60;1138707;-83
2020/12/06 07:50:21;;;;;;;29.90;17.43;;;;;;;7.12;77.75;100001.23;4827204;58;1138669;-84
2020/12/06 07:55:26;;;;;;;26.73;15.10;;;;;;;7.29;77.33;100004.34;4844279;58;1140903;-86
2020/12/06 08:00:37;;;;;;;27.90;17.27;;;;;;;7.43;76.82;99998.07;4882819;58;1140825;-84
2020/12/06 08:05:44;;;;;;;47.93;23.30;;;;;;;7.59;76.47;99991.22;4770408;60;1138747;-85
2020/12/06 08:10:55;;;;;;;25.03;14.87;;;;;;;7.71;75.83;99988.98;4744045;60;1138651;-84
2020/12/06 08:16:09;;;;;;;29.07;14.03;;;;;;;7.82;75.60;99982.44;4873394;58;1148348;-86
2020/12/06 08:21:15;;;;;;;29.05;15.48;;;;;;;7.91;74.91;99983.56;4839302;59;1138782;-83
2020/12/06 08:26:24;;;;;;;55.57;27.37;;;;;;;7.93;75.32;99993.03;4817844;58;1138837;-85
2020/12/06 08:31:29;;;;;;;49.17;26.60;;;;;;;7.88;75.10;99996.47;4831426;58;1138848;-84
2020/12/06 08:36:38;;;;;;;42.83;25.82;;;;;;;7.78;75.30;99980.17;4840057;59;1138560;-84
2020/12/06 08:41:43;;;;;;;29.30;16.73;;;;;;;7.76;75.46;99981.59;4861488;58;1138786;-85
2020/12/06 08:46:53;;;;;;;24.60;14.53;;;;;;;7.75;75.55;99961.48;4859351;58;1138973;-85
2020/12/06 08:51:59;;;;;;;31.50;16.83;;;;;;;7.85;75.64;99959.00;4860426;58;1138593;-83
2020/12/06 08:57:11;;;;;;;22.60;15.00;;;;;;;7.99;75.21;99957.00;4860952;58;1138561;-83
2020/12/06 09:02:26;;;;;;;48.03;33.03;;;;;;;8.00;74.96;99959.16;4864624;58;1138470;-83
2020/12/06 09:07:37;;;;;;;28.93;16.20;;;;;;;8.03;74.69;99959.77;4860573;57;1138706;-83
2020/12/06 09:12:44;;;;;;;27.87;14.67;;;;;;;8.02;74.74;99954.14;4760692;59;1138640;-84
2020/12/06 09:17:50;;;;;;;28.83;15.43;;;;;;;8.02;74.92;99951.98;4893646;58;1138711;-85
2020/12/06 09:22:55;;;;;;;24.47;14.17;;;;;;;7.95;75.05;99946.33;4903399;58;1138825;-85
2020/12/06 09:28:03;;;;;;;24.12;15.15;;;;;;;7.94;75.23;99961.80;4786296;59;1138938;-85
2020/12/06 09:33:09;;;;;;;29.12;16.60;;;;;;;7.94;75.33;99959.64;4735084;59;1138741;-85
2020/12/06 09:38:15;;;;;;;28.00;16.57;;;;;;;8.00;75.52;99959.99;4751764;60;1138851;-85
2020/12/06 09:43:21;;;;;;;32.58;17.73;;;;;;;8.09;75.43;99954.52;4802040;59;1138718;-84
2020/12/06 09:48:26;;;;;;;28.83;16.33;;;;;;;8.19;75.44;99966.50;4794464;60;1138852;-84
2020/12/06 09:53:32;;;;;;;43.33;24.63;;;;;;;8.32;74.99;99968.11;4823705;59;1138763;-84
2020/12/06 09:58:38;;;;;;;113.10;62.05;;;;;;;8.39;74.90;99965.85;4770237;59;1138874;-84
2020/12/06 10:03:44;;;;;;;99.27;45.97;;;;;;;8.50;74.90;99968.48;4700015;60;1140838;-85
2020/12/06 10:08:49;;;;;;;27.63;14.23;;;;;;;8.54;74.61;99960.70;4762980;60;1138860;-84
2020/12/06 10:13:55;;;;;;;45.53;27.97;;;;;;;8.63;74.25;99955.18;4741494;60;1138970;-84
2020/12/06 10:19:00;;;;;;;26.57;15.47;;;;;;;8.73;74.56;99933.72;4791264;60;1138896;-84
2020/12/06 10:24:06;;;;;;;28.20;17.13;;;;;;;8.79;73.62;99930.13;4885196;58;1138645;-85
2020/12/06 10:29:13;;;;;;;59.40;34.78;;;;;;;8.91;73.57;99928.30;4889130;58;1138801;-84
2020/12/06 10:34:24;;;;;;;25.95;14.80;;;;;;;8.97;73.70;99910.68;4886440;58;1138728;-86
2020/12/06 10:39:29;;;;;;;37.70;18.57;;;;;;;9.11;72.94;99909.56;4878445;57;1138851;-85
2020/12/06 10:44:38;;;;;;;38.87;20.57;;;;;;;9.21;72.75;99904.36;4876253;58;1138828;-84
2020/12/06 10:49:49;;;;;;;61.10;37.53;;;;;;;9.32;72.58;99889.31;4880652;58;1138709;-87
2020/12/06 10:54:57;;;;;;;54.43;30.37;;;;;;;9.42;72.08;99887.62;4785868;59;1138661;-84
2020/12/06 11:00:10;;;;;;;42.83;24.03;;;;;;;9.52;72.47;99891.16;4878367;58;1138714;-83
2020/12/06 11:05:16;;;;;;;70.90;36.87;;;;;;;9.61;72.26;99892.69;4887282;57;1138750;-85
2020/12/06 11:10:21;;;;;;;58.23;28.92;;;;;;;9.58;71.75;99895.58;4889077;58;1138805;-83
2020/12/06 11:15:27;;;;;;;41.10;20.73;;;;;;;9.53;72.00;99887.55;4784380;59;1138580;-84
2020/12/06 11:20:32;;;;;;;36.25;20.12;;;;;;;9.56;72.18;99894.86;4757637;59;1139291;-84
2020/12/06 11:25:41;;;;;;;46.47;24.83;;;;;;;9.59;72.35;99895.45;4750897;60;1138883;-83
2020/12/06 11:30:46;;;;;;;64.87;29.83;;;;;;;9.66;72.25;99908.48;4746971;60;1138792;-83
2020/12/06 11:35:51;;;;;;;36.27;19.97;;;;;;;9.69;72.40;99916.16;4744165;60;1138669;-83
2020/12/06 11:40:57;;;;;;;38.63;22.33;;;;;;;9.75;71.74;99918.30;4756591;60;1139000;-82
2020/12/06 11:46:03;;;;;;;26.97;16.30;;;;;;;9.86;72.01;99917.38;4750775;59;1138627;-84
2020/12/06 11:51:08;;;;;;;39.87;21.70;;;;;;;10.05;71.23;99921.48;4762054;60;1138763;-84
2020/12/06 11:56:14;;;;;;;55.73;28.27;;;;;;;10.39;70.42;99922.08;4766060;59;1140551;-83
2020/12/06 12:01:19;;;;;;;35.43;21.43;;;;;;;10.77;68.69;99913.95;4776163;60;1140682;-84
2020/12/06 12:06:25;;;;;;;39.40;24.53;;;;;;;11.01;67.86;99909.61;4760881;59;1140451;-84
2020/12/06 12:11:30;;;;;;;43.97;26.77;;;;;;;11.16;67.66;99906.42;4753747;59;1140863;-84
2020/12/06 12:16:36;;;;;;;34.20;19.73;;;;;;;11.21;66.99;99901.56;4750298;59;1140867;-83
2020/12/06 12:21:42;;;;;;;31.93;19.43;;;;;;;11.34;66.45;99895.99;4811584;59;1140331;-84
2020/12/06 12:26:47;;;;;;;27.50;16.33;;;;;;;11.53;66.21;99903.11;4791248;59;1140367;-85
2020/12/06 12:31:53;;;;;;;38.23;20.33;;;;;;;11.61;65.30;99905.88;4769938;59;1140537;-85
2020/12/06 12:36:58;;;;;;;68.60;35.17;;;;;;;11.60;65.14;99910.37;4802479;59;1140470;-86
2020/12/06 12:42:04;;;;;;;30.03;17.40;;;;;;;11.68;64.70;99900.86;4768778;59;1211978;-84
2020/12/06 12:47:09;;;;;;;28.07;16.33;;;;;;;11.86;64.67;99902.69;4754205;59;1140434;-88
2020/12/06 12:52:17;;;;;;;31.60;18.00;;;;;;;11.94;64.20;99905.45;4750465;59;1140854;-91
2020/12/06 12:57:22;;;;;;;30.37;17.77;;;;;;;11.97;63.80;99899.03;4738025;60;1140359;-87
2020/12/06 13:02:28;;;;;;;41.60;24.05;;;;;;;11.96;62.80;99881.46;4724994;60;1140863;-89
2020/12/06 13:07:34;;;;;;;33.37;18.40;;;;;;;11.98;63.07;99879.50;4744378;59;1140522;-86
2020/12/06 13:12:39;;;;;;;30.90;16.87;;;;;;;11.68;63.51;99884.97;4768484;59;1140882;-86
2020/12/06 13:17:45;;;;;;;28.73;18.13;;;;;;;11.45;64.38;99882.64;4760452;59;1140974;-95
2020/12/06 13:22:51;;;;;;;34.80;21.87;;;;;;;11.32;64.73;99886.03;4775559;59;1140425;-90
2020/12/06 13:27:56;;;;;;;32.60;16.47;;;;;;;11.20;65.05;99887.14;4890267;59;1140797;-91
2020/12/06 13:33:02;;;;;;;83.67;39.93;;;;;;;10.86;66.16;99898.58;4891461;59;1140466;-91
2020/12/06 13:38:07;;;;;;;91.73;44.23;;;;;;;10.55;67.31;99911.84;4896350;58;1140498;-90
2020/12/06 13:43:13;;;;;;;129.17;54.33;;;;;;;10.25;68.31;99895.16;4901637;58;1140807;-89
2020/12/06 13:48:18;;;;;;;83.33;36.23;;;;;;;10.19;68.80;99889.45;4884136;58;1142869;-91
2020/12/06 13:53:24;;;;;;;41.23;17.10;;;;;;;10.08;69.56;99888.16;4897527;58;1140429;-91
2020/12/06 13:58:29;;;;;;;65.10;26.97;;;;;;;9.96;70.07;99894.98;4901634;58;1140439;-91
2020/12/06 14:03:37;;;;;;;37.73;21.10;;;;;;;9.80;70.49;99905.52;4887587;58;1138406;-91
2020/12/06 14:08:43;;;;;;;26.93;15.85;;;;;;;9.66;71.00;99895.28;4827588;59;1138289;-91
2020/12/06 14:13:49;;;;;;;26.40;14.53;;;;;;;9.51;71.40;99897.88;4776128;60;1138475;-91
2020/12/06 14:18:57;;;;;;;33.27;19.20;;;;;;;9.38;71.83;99907.78;4804687;59;1138744;-91
2020/12/06 14:24:03;;;;;;;33.40;18.97;;;;;;;9.27;72.11;99901.23;4904991;57;1139252;-91
2020/12/06 14:29:08;;;;;;;32.33;17.80;;;;;;;9.10;72.27;99900.81;4931335;58;1138401;-90
2020/12/06 14:34:15;;;;;;;32.53;16.07;;;;;;;9.10;72.27;99900.81;4913377;57;1138302;-90
2020/12/06 14:39:20;;;;;;;32.53;17.10;;;;;;;9.00;72.87;99910.44;4922511;58;1138706;-89
2020/12/06 14:44:26;;;;;;;44.50;22.73;;;;;;;8.90;73.19;99905.53;4910494;58;1138342;-90
2020/12/06 14:49:31;;;;;;;44.20;23.87;;;;;;;8.79;73.41;99895.01;4946488;58;1138236;-91
2020/12/06 14:54:37;;;;;;;51.73;28.53;;;;;;;8.68;73.61;99892.41;4919309;58;1138480;-91
2020/12/06 14:59:42;;;;;;;54.23;30.07;;;;;;;8.60;73.83;99885.09;4930861;58;1138462;-90
2020/12/06 15:04:48;;;;;;;60.17;30.80;;;;;;;8.51;73.91;99880.56;4911044;58;1138710;-90
2020/12/06 15:09:54;;;;;;;41.07;22.27;;;;;;;8.44;74.03;99876.23;4838335;59;1138804;-91
2020/12/06 15:15:00;;;;;;;43.10;22.97;;;;;;;8.38;74.05;99880.69;4894359;59;1134522;-86
2020/12/06 15:20:06;;;;;;;39.70;20.63;;;;;;;8.24;74.53;99887.97;4764140;61;1138789;-84
2020/12/06 15:25:11;;;;;;;95.80;46.73;;;;;;;8.12;74.53;99902.42;4899074;58;1138313;-85
2020/12/06 15:30:18;;;;;;;76.90;38.20;;;;;;;7.98;74.81;99903.97;4994749;58;1136322;-84
2020/12/06 15:35:24;;;;;;;43.55;23.27;;;;;;;7.88;75.08;99899.06;4913105;58;1138669;-85
2020/12/06 15:40:30;;;;;;;100.87;45.92;;;;;;;7.73;75.62;99897.59;4955176;58;1138491;-85
2020/12/06 15:45:35;;;;;;;55.13;27.50;;;;;;;7.67;75.71;99914.67;4924952;58;1140805;-85
2020/12/06 15:50:41;;;;;;;127.40;60.33;;;;;;;7.63;75.62;99915.04;4937908;58;1138286;-84
2020/12/06 15:55:46;;;;;;;609.73;261.93;;;;;;;7.58;75.70;99917.16;4969093;58;1140332;-86
2020/12/06 16:00:51;;;;;;;346.50;170.77;;;;;;;7.52;75.71;99928.14;4817133;60;1142881;-84
2020/12/06 16:05:57;;;;;;;200.33;96.13;;;;;;;7.38;76.17;99918.64;4821982;59;1142757;-85
2020/12/06 16:11:03;;;;;;;360.40;177.47;;;;;;;7.36;75.99;99921.38;4843930;59;1141145;-84
2020/12/06 16:16:11;;;;;;;111.85;62.23;;;;;;;7.34;75.85;99936.91;4835955;60;1142962;-85
2020/12/06 16:21:18;;;;;;;60.80;31.73;;;;;;;7.25;76.09;99929.23;4915421;58;1140525;-85
2020/12/06 16:26:23;;;;;;;56.73;30.80;;;;;;;7.20;76.15;99916.87;4937859;58;1138787;-84
2020/12/06 16:31:39;;;;;;;27.57;14.83;;;;;;;7.18;75.96;99927.98;4974483;58;1138693;-84
2020/12/06 16:36:46;;;;;;;30.50;17.67;;;;;;;7.13;76.05;99942.44;4909847;58;1138531;-85
2020/12/06 16:41:57;;;;;;;86.93;54.30;;;;;;;7.08;76.13;99949.80;4937845;58;1138234;-85
2020/12/06 16:47:03;;;;;;;31.77;16.70;;;;;;;6.98;76.26;99941.28;4907124;58;1138598;-85
2020/12/06 16:52:12;;;;;;;25.52;16.70;;;;;;;6.98;76.08;99950.48;4942460;58;1138250;-85
2020/12/06 16:57:17;;;;;;;30.48;16.37;;;;;;;6.94;76.12;99948.17;4807598;59;1138295;-84
2020/12/06 17:02:23;;;;;;;30.97;15.93;;;;;;;6.88;76.01;99944.19;4934439;58;1138402;-85
2020/12/06 17:07:28;;;;;;;33.53;18.83;;;;;;;6.86;75.93;99959.25;4945577;58;1138240;-84
2020/12/06 17:12:34;;;;;;;30.43;16.20;;;;;;;6.78;75.97;99962.04;4905415;58;1138705;-85
2020/12/06 17:17:40;;;;;;;81.30;58.37;;;;;;;6.70;75.98;99959.97;4922503;58;1138218;-85
2020/12/06 17:22:45;;;;;;;27.33;14.00;;;;;;;6.58;76.30;99959.02;4910821;57;1138249;-85
2020/12/06 17:27:51;;;;;;;30.53;14.97;;;;;;;6.48;76.58;99967.19;4939666;58;1138278;-85
2020/12/06 17:32:57;;;;;;;59.77;36.57;;;;;;;6.45;76.65;99971.80;4967880;58;1138450;-84
2020/12/06 17:38:02;;;;;;;47.07;24.97;;;;;;;6.41;76.43;99971.20;4922563;58;1138308;-84
2020/12/06 17:43:08;;;;;;;110.37;40.90;;;;;;;6.38;76.35;99971.88;4918821;58;1138610;-85
2020/12/06 17:48:14;;;;;;;112.67;48.33;;;;;;;6.32;76.51;99980.53;4942761;58;1140471;-84
2020/12/06 17:53:20;;;;;;;37.10;19.80;;;;;;;6.27;76.51;99981.78;4927002;57;1144267;-85
2020/12/06 17:58:25;;;;;;;77.58;36.03;;;;;;;6.21;76.73;99975.66;4919282;58;1138538;-85
2020/12/06 18:03:31;;;;;;;81.55;35.35;;;;;;;6.18;76.66;99978.48;4914685;58;1138234;-85
2020/12/06 18:08:36;;;;;;;36.83;20.40;;;;;;;6.13;76.74;99984.03;4910035;58;1138287;-84
2020/12/06 18:13:43;;;;;;;62.40;33.37;;;;;;;6.11;76.56;99982.48;4919858;57;1138335;-84
2020/12/06 18:18:48;;;;;;;29.93;17.53;;;;;;;6.03;76.82;99987.39;4938001;58;1136197;-84
2020/12/06 18:23:55;;;;;;;72.93;34.57;;;;;;;6.02;76.56;99986.55;4936788;57;1138641;-85
2020/12/06 18:29:07;;;;;;;186.73;65.83;;;;;;;5.92;76.89;99983.72;4977341;57;1138442;-84
2020/12/06 18:34:13;;;;;;;60.93;26.17;;;;;;;5.89;76.90;99985.70;4884523;58;1141333;-85
2020/12/06 18:39:21;;;;;;;78.67;34.40;;;;;;;5.83;76.91;99976.88;4861771;59;1138221;-85
2020/12/06 18:44:27;;;;;;;48.55;18.15;;;;;;;5.77;77.13;99975.52;4844139;58;1136478;-85
2020/12/06 18:49:32;;;;;;;72.20;34.50;;;;;;;5.73;76.99;99981.06;4864847;59;1138379;-84
2020/12/06 18:54:38;;;;;;;57.83;25.87;;;;;;;5.65;76.77;99996.02;4845694;59;1136331;-85
2020/12/06 18:59:43;;;;;;;40.10;18.40;;;;;;;5.65;76.77;99996.02;4845240;59;1138245;-85
2020/12/06 19:04:49;;;;;;;36.97;16.93;;;;;;;5.58;77.11;100001.28;4858364;59;1138381;-84
2020/12/06 19:09:54;;;;;;;30.23;17.73;;;;;;;5.53;77.03;99996.79;4838575;59;1140812;-84
2020/12/06 19:15:00;;;;;;;192.00;97.97;;;;;;;5.52;76.79;99993.80;4842501;59;1138630;-84
2020/12/06 19:20:06;;;;;;;39.13;23.63;;;;;;;5.41;77.10;99995.81;4739344;60;1138478;-84
2020/12/06 19:25:13;;;;;;;27.63;15.83;;;;;;;5.34;77.10;99997.16;4733529;60;1138760;-84
2020/12/06 19:30:19;;;;;;;29.57;15.60;;;;;;;5.21;77.33;99994.92;4847713;59;1136174;-85
2020/12/06 19:35:27;;;;;;;25.40;14.33;;;;;;;5.15;77.54;99989.62;4851040;59;1136490;-85
2020/12/06 19:40:34;;;;;;;30.23;17.05;;;;;;;5.03;77.72;99986.48;4856511;59;1138378;-84
2020/12/06 19:45:40;;;;;;;22.07;12.67;;;;;;;5.01;77.58;100004.55;4846655;59;1136405;-85
2020/12/06 19:50:46;;;;;;;33.43;18.13;;;;;;;4.92;77.86;100005.94;4851836;59;1138349;-85
2020/12/06 19:55:51;;;;;;;25.47;13.27;;;;;;;4.88;77.90;100005.78;4853703;59;1139109;-85
2020/12/06 20:00:57;;;;;;;22.82;12.53;;;;;;;4.80;77.97;99987.91;4855005;59;1138610;-85
2020/12/06 20:06:02;;;;;;;44.50;23.97;;;;;;;4.71;78.23;99988.95;4870888;59;1138376;-84
2020/12/06 20:11:12;;;;;;;24.10;13.20;;;;;;;4.65;78.30;99993.25;4843860;59;1136653;-84
2020/12/06 20:16:17;;;;;;;33.95;18.40;;;;;;;4.61;78.37;99983.42;4845777;59;1136762;-84
2020/12/06 20:21:23;;;;;;;26.50;15.05;;;;;;;4.57;78.32;99981.48;4846782;59;1137368;-84
2020/12/06 20:26:29;;;;;;;30.52;13.32;;;;;;;4.52;78.41;99969.59;4889889;59;1136632;-85
2020/12/06 20:31:34;;;;;;;29.50;16.53;;;;;;;4.51;78.31;99975.77;4845392;59;1138315;-85
2020/12/06 20:36:40;;;;;;;23.60;12.73;;;;;;;4.41;78.52;99972.88;4850077;59;1136250;-85
2020/12/06 20:41:51;;;;;;;29.33;14.43;;;;;;;4.39;78.64;99975.22;4849955;59;1136765;-84
2020/12/06 20:46:58;;;;;;;37.30;19.17;;;;;;;4.31;78.84;99979.59;4765933;60;1136671;-85
2020/12/06 20:52:05;;;;;;;31.93;15.97;;;;;;;4.30;78.66;99963.50;4795921;59;1136503;-85
2020/12/06 20:57:11;;;;;;;28.30;14.97;;;;;;;4.26;78.98;99958.57;4783630;60;1136631;-85
2020/12/06 21:02:16;;;;;;;27.60;14.50;;;;;;;4.21;79.05;99980.63;4776629;59;1136751;-85
2020/12/06 21:07:22;;;;;;;28.87;15.13;;;;;;;4.19;79.05;99982.48;4782907;59;1136643;-85
2020/12/06 21:12:27;;;;;;;32.78;17.15;;;;;;;4.16;79.15;99970.88;4780714;59;1136926;-86
2020/12/06 21:17:36;;;;;;;35.57;13.60;;;;;;;4.19;78.97;99985.56;4777806;60;1136488;-85
2020/12/06 21:22:42;;;;;;;29.13;15.53;;;;;;;4.10;79.25;99962.11;4770157;59;1138944;-85
2020/12/06 21:27:47;;;;;;;32.00;15.67;;;;;;;4.08;79.41;99969.67;4894179;58;1136565;-85
2020/12/06 21:32:53;;;;;;;23.00;14.17;;;;;;;4.09;79.17;99964.81;4800616;59;1136516;-85
2020/12/06 21:37:58;;;;;;;25.63;13.10;;;;;;;4.06;79.41;99973.69;4813085;59;1136631;-85
2020/12/06 21:43:04;;;;;;;22.70;11.67;;;;;;;4.00;79.70;99969.27;4814638;59;1136599;-85
2020/12/06 21:48:10;;;;;;;17.93;10.77;;;;;;;3.98;79.72;99968.05;4746183;60;1136555;-86
2020/12/06 21:53:15;;;;;;;21.63;12.60;;;;;;;4.01;79.55;99943.02;4763965;61;1138919;-85
2020/12/06 21:58:21;;;;;;;27.77;15.85;;;;;;;3.96;79.78;99963.87;4815178;60;1136883;-85
2020/12/06 22:03:26;;;;;;;30.30;16.02;;;;;;;3.97;79.63;99969.02;4813861;60;1136713;-85
2020/12/06 22:08:32;;;;;;;36.73;17.37;;;;;;;3.95;79.75;99968.72;4677106;60;1137237;-86
2020/12/06 22:13:38;;;;;;;27.13;14.77;;;;;;;3.95;79.69;99957.80;4731432;60;1136759;-85
2020/12/06 22:18:43;;;;;;;30.97;15.07;;;;;;;3.96;79.57;99958.64;4738818;60;1136756;-85
2020/12/06 22:23:49;;;;;;;31.05;16.42;;;;;;;3.93;79.59;99949.19;4733695;59;1136658;-85
2020/12/06 22:28:55;;;;;;;30.43;16.97;;;;;;;3.91;79.84;99951.52;4732103;60;1138770;-85
2020/12/06 22:34:01;;;;;;;24.53;14.13;;;;;;;3.88;79.84;99952.53;4746751;60;1136700;-85
2020/12/06 22:39:06;;;;;;;30.77;17.03;;;;;;;3.87;79.94;99949.53;4663369;62;1136579;-85
2020/12/06 22:44:12;;;;;;;24.53;13.47;;;;;;;3.86;79.83;99951.78;4665453;62;1138828;-84
2020/12/06 22:49:17;;;;;;;24.93;14.50;;;;;;;3.86;79.76;99942.63;4702960;61;1136665;-85
2020/12/06 22:54:23;;;;;;;29.92;15.28;;;;;;;3.86;79.76;99929.55;4706232;61;1136681;-85
2020/12/06 22:59:29;;;;;;;32.05;15.28;;;;;;;3.83;79.96;99939.72;4665257;61;1136926;-85
2020/12/06 23:04:34;;;;;;;25.43;15.40;;;;;;;3.83;79.84;99930.56;4804757;59;1136628;-85